Airfield :
LOGIN :

Register | Disclaimer

   EN    FR    IT 

 










Legend :    VFR   Marginal VFR   IFR   Intensive IFR   Very Intensive IFR
Visi :
Ceiling :
>= 8 km
>= 3000ft
5 to 8 km
1000 to 3000 ft
1500m to 5 km
500 to 1000 ft
800 to 1500m
200 to 500 ft
< 800m
< 200 ft
Symbols :   Thunderstorms  Fog  Heavy snow  Heavy precipitations  Wind > 20 kt
SIGMETs :     Misc.  Thunderstorms  Icing  Turbulence  Mountain Waves  Volcanic Ashes






- Airport Elevation : 24 ft
- IATA code : IBZ


LEIB - Ibiza

CURRENT METAR :
  • 071930Z 03005KT 340V100 CAVOK 22/18 Q1019 NOSIG

EXPIRED METARs :
  • 071900Z 04004KT CAVOK 21/18 Q1019 NOSIG
  • 071830Z 03004KT 350V060 CAVOK 22/18 Q1018 NOSIG
  • 071800Z 03006KT 9999 FEW025 22/18 Q1018 NOSIG
  • 071730Z 04005KT 350V080 9999 FEW020 22/17 Q1018 NOSIG
  • 071700Z 05005KT 9999 FEW025 23/17 Q1018 NOSIG

TAF TAF LEIB
Valid from the 07 at 15:00 until the 08 at 15:00 UTC


071400Z 0715/0815 05006KT 9999 SCT015 TX25/0812Z TN17/0805Z
PROB30
TEMPO 0715/0807 4000 TSRA FEW015CB



MET'MAP, your aeronautical weather chart ! - Copyright ORBIFLY December 2007 - Disclaimer

ORBIFLY MET'MAP TEAM :

Programming & Development : Alexandra Zaïnal
Original concept : Baudouin d'Aumeries
Technical & hardware support : Manuel Goepfert
Assistance : Marc-Olivier Méhu




SOURCES & CREDITS :

   NOAA